Spokane/Fairchild AFB, Washington
Current Conditions -  °F | °C
As of 11:02 AM on Tuesday 27 Jan 2015 (Local Time) from KSKA Reporting Station
Moderate Fog Moderate Fog  
Wind Chill: 27°   Ceiling: 100
Heat Index: 32°   Visibility: 0.5mi
Dew Point: 32°   Wind: 5mph
Humidity: 100%   Direction: 40°NE
Pressure: 30"   Gusts: NA
Location:  47.62°N, 117.65°W
Report Text: KSKA 271902Z 04004KT 1/2SM R05/4500FT FZFG VV001 M00/M00 A3000 RMK AO2A
Loading
Personal Weather Stations






























Interactive Weather Map New forecast layout! Learn more

10-Day Weather Forecast

Advertisements
Track Severe Weather on mobile